sensor_id;sensor_type;location;lat;lon;timestamp;P1;durP1;ratioP1;P2;durP2;ratioP2
63693;SDS011;49839;51.798;10.954;2023-05-06T00:00:51;22.85;;;16.67;;
63693;SDS011;49839;51.798;10.954;2023-05-06T00:03:19;21.05;;;16.98;;
63693;SDS011;49839;51.798;10.954;2023-05-06T00:05:46;21.52;;;17.27;;
63693;SDS011;49839;51.798;10.954;2023-05-06T00:08:16;20.77;;;17.15;;
63693;SDS011;49839;51.798;10.954;2023-05-06T00:10:44;18.95;;;16.15;;
63693;SDS011;49839;51.798;10.954;2023-05-06T00:13:11;18.50;;;15.45;;
63693;SDS011;49839;51.798;10.954;2023-05-06T00:15:39;20.05;;;15.82;;
63693;SDS011;49839;51.798;10.954;2023-05-06T00:18:07;20.83;;;14.57;;
63693;SDS011;49839;51.798;10.954;2023-05-06T00:20:34;16.58;;;13.93;;
63693;SDS011;49839;51.798;10.954;2023-05-06T00:23:02;18.00;;;14.68;;
63693;SDS011;49839;51.798;10.954;2023-05-06T00:25:31;17.70;;;14.98;;
63693;SDS011;49839;51.798;10.954;2023-05-06T00:27:59;16.33;;;12.65;;
63693;SDS011;49839;51.798;10.954;2023-05-06T00:30:26;17.77;;;13.13;;
63693;SDS011;49839;51.798;10.954;2023-05-06T00:32:54;19.27;;;13.30;;
63693;SDS011;49839;51.798;10.954;2023-05-06T00:35:22;17.10;;;12.43;;
63693;SDS011;49839;51.798;10.954;2023-05-06T00:37:54;17.98;;;12.05;;
63693;SDS011;49839;51.798;10.954;2023-05-06T00:40:23;16.67;;;12.10;;
63693;SDS011;49839;51.798;10.954;2023-05-06T00:42:52;15.70;;;12.30;;
63693;SDS011;49839;51.798;10.954;2023-05-06T00:45:20;16.55;;;12.15;;
63693;SDS011;49839;51.798;10.954;2023-05-06T00:47:47;15.18;;;11.57;;
63693;SDS011;49839;51.798;10.954;2023-05-06T00:50:15;14.25;;;10.68;;
63693;SDS011;49839;51.798;10.954;2023-05-06T00:52:43;14.43;;;10.73;;
63693;SDS011;49839;51.798;10.954;2023-05-06T00:55:10;14.63;;;11.18;;
63693;SDS011;49839;51.798;10.954;2023-05-06T00:57:38;16.77;;;12.27;;
63693;SDS011;49839;51.798;10.954;2023-05-06T01:00:08;16.73;;;13.98;;
63693;SDS011;49839;51.798;10.954;2023-05-06T01:02:45;18.80;;;14.35;;
63693;SDS011;49839;51.798;10.954;2023-05-06T01:05:46;18.00;;;15.15;;
63693;SDS011;49839;51.798;10.954;2023-05-06T01:08:53;18.40;;;14.80;;
63693;SDS011;49839;51.798;10.954;2023-05-06T01:11:54;20.30;;;15.00;;
63693;SDS011;49839;51.798;10.954;2023-05-06T01:14:58;18.27;;;14.98;;
63693;SDS011;49839;51.798;10.954;2023-05-06T08:14:36;4.40;;;2.28;;
63693;SDS011;49839;51.798;10.954;2023-05-06T08:17:03;5.15;;;2.42;;
63693;SDS011;49839;51.798;10.954;2023-05-06T08:19:31;4.35;;;2.60;;
63693;SDS011;49839;51.798;10.954;2023-05-06T08:21:59;4.57;;;2.35;;
63693;SDS011;49839;51.798;10.954;2023-05-06T08:24:27;4.95;;;2.65;;
63693;SDS011;49839;51.798;10.954;2023-05-06T08:26:55;6.40;;;2.70;;
63693;SDS011;49839;51.798;10.954;2023-05-06T08:29:22;5.65;;;2.80;;
63693;SDS011;49839;51.798;10.954;2023-05-06T08:31:51;6.15;;;3.00;;
63693;SDS011;49839;51.798;10.954;2023-05-06T08:34:19;4.85;;;3.00;;
63693;SDS011;49839;51.798;10.954;2023-05-06T08:36:47;4.97;;;2.83;;
63693;SDS011;49839;51.798;10.954;2023-05-06T08:41:58;5.32;;;3.03;;
63693;SDS011;49839;51.798;10.954;2023-05-06T08:44:27;5.65;;;3.80;;
63693;SDS011;49839;51.798;10.954;2023-05-06T08:46:56;5.38;;;2.88;;
63693;SDS011;49839;51.798;10.954;2023-05-06T08:52:05;5.05;;;3.25;;
63693;SDS011;49839;51.798;10.954;2023-05-06T08:54:33;6.78;;;3.60;;
63693;SDS011;49839;51.798;10.954;2023-05-06T08:57:02;5.20;;;3.22;;
63693;SDS011;49839;51.798;10.954;2023-05-06T08:59:31;6.78;;;2.60;;
63693;SDS011;49839;51.798;10.954;2023-05-06T09:02:16;6.03;;;3.30;;
63693;SDS011;49839;51.798;10.954;2023-05-06T09:04:44;6.65;;;3.58;;
63693;SDS011;49839;51.798;10.954;2023-05-06T09:13:03;8.35;;;6.38;;
63693;SDS011;49839;51.798;10.954;2023-05-06T09:15:37;10.85;;;6.60;;
63693;SDS011;49839;51.798;10.954;2023-05-06T09:18:07;8.00;;;6.82;;
63693;SDS011;49839;51.798;10.954;2023-05-06T09:20:35;8.75;;;7.45;;
63693;SDS011;49839;51.798;10.954;2023-05-06T09:23:07;9.95;;;7.00;;
63693;SDS011;49839;51.798;10.954;2023-05-06T09:25:35;10.77;;;7.03;;
63693;SDS011;49839;51.798;10.954;2023-05-06T09:28:03;8.55;;;6.45;;
63693;SDS011;49839;51.798;10.954;2023-05-06T09:33:14;7.68;;;5.78;;
63693;SDS011;49839;51.798;10.954;2023-05-06T09:43:52;7.10;;;4.70;;
63693;SDS011;49839;51.798;10.954;2023-05-06T09:46:20;6.23;;;4.67;;
63693;SDS011;49839;51.798;10.954;2023-05-06T09:48:50;7.93;;;3.78;;
63693;SDS011;49839;51.798;10.954;2023-05-06T09:51:18;6.53;;;3.65;;
63693;SDS011;49839;51.798;10.954;2023-05-06T09:53:46;6.57;;;4.00;;
63693;SDS011;49839;51.798;10.954;2023-05-06T09:56:15;6.53;;;4.72;;
63693;SDS011;49839;51.798;10.954;2023-05-06T09:58:43;7.85;;;4.68;;
63693;SDS011;49839;51.798;10.954;2023-05-06T10:01:12;6.50;;;4.30;;
63693;SDS011;49839;51.798;10.954;2023-05-06T10:03:52;6.82;;;4.57;;
63693;SDS011;49839;51.798;10.954;2023-05-06T10:06:21;6.90;;;4.22;;
63693;SDS011;49839;51.798;10.954;2023-05-06T10:08:49;6.95;;;4.55;;
63693;SDS011;49839;51.798;10.954;2023-05-06T10:11:17;6.05;;;4.15;;
63693;SDS011;49839;51.798;10.954;2023-05-06T10:16:14;5.50;;;4.05;;
63693;SDS011;49839;51.798;10.954;2023-05-06T10:18:44;5.55;;;3.90;;
63693;SDS011;49839;51.798;10.954;2023-05-06T10:21:18;5.80;;;4.10;;
63693;SDS011;49839;51.798;10.954;2023-05-06T10:23:50;5.57;;;3.78;;
63693;SDS011;49839;51.798;10.954;2023-05-06T10:26:21;7.40;;;4.40;;
63693;SDS011;49839;51.798;10.954;2023-05-06T10:28:52;7.20;;;4.93;;
63693;SDS011;49839;51.798;10.954;2023-05-06T10:31:20;7.35;;;4.10;;
63693;SDS011;49839;51.798;10.954;2023-05-06T10:33:48;6.20;;;4.38;;
63693;SDS011;49839;51.798;10.954;2023-05-06T10:36:21;6.07;;;4.78;;
63693;SDS011;49839;51.798;10.954;2023-05-06T10:38:52;6.78;;;4.50;;
63693;SDS011;49839;51.798;10.954;2023-05-06T10:41:21;7.93;;;4.85;;
63693;SDS011;49839;51.798;10.954;2023-05-06T10:43:51;6.57;;;5.25;;
63693;SDS011;49839;51.798;10.954;2023-05-06T10:46:22;7.60;;;5.40;;
63693;SDS011;49839;51.798;10.954;2023-05-06T10:51:46;10.00;;;6.38;;
63693;SDS011;49839;51.798;10.954;2023-05-06T10:54:20;8.32;;;6.18;;
63693;SDS011;49839;51.798;10.954;2023-05-06T10:57:08;7.30;;;6.07;;
63693;SDS011;49839;51.798;10.954;2023-05-06T10:59:36;7.28;;;6.20;;
63693;SDS011;49839;51.798;10.954;2023-05-06T11:02:11;9.10;;;5.80;;
63693;SDS011;49839;51.798;10.954;2023-05-06T11:04:40;7.03;;;5.10;;
63693;SDS011;49839;51.798;10.954;2023-05-06T11:07:10;6.93;;;5.43;;
63693;SDS011;49839;51.798;10.954;2023-05-06T11:12:44;6.65;;;4.72;;
63693;SDS011;49839;51.798;10.954;2023-05-06T11:15:18;5.55;;;4.07;;
63693;SDS011;49839;51.798;10.954;2023-05-06T11:18:39;7.15;;;4.57;;
63693;SDS011;49839;51.798;10.954;2023-05-06T11:24:09;5.82;;;3.90;;
63693;SDS011;49839;51.798;10.954;2023-05-06T11:26:41;5.15;;;3.85;;
63693;SDS011;49839;51.798;10.954;2023-05-06T11:29:09;5.88;;;4.28;;
63693;SDS011;49839;51.798;10.954;2023-05-06T11:31:38;6.13;;;4.20;;
63693;SDS011;49839;51.798;10.954;2023-05-06T11:34:08;7.75;;;4.35;;
63693;SDS011;49839;51.798;10.954;2023-05-06T11:36:44;5.25;;;3.63;;
63693;SDS011;49839;51.798;10.954;2023-05-06T11:39:14;5.47;;;3.55;;
63693;SDS011;49839;51.798;10.954;2023-05-06T11:41:41;5.72;;;4.03;;
63693;SDS011;49839;51.798;10.954;2023-05-06T11:44:09;5.28;;;3.70;;
63693;SDS011;49839;51.798;10.954;2023-05-06T11:46:39;5.97;;;4.88;;
63693;SDS011;49839;51.798;10.954;2023-05-06T11:52:01;7.45;;;5.03;;
63693;SDS011;49839;51.798;10.954;2023-05-06T11:54:32;6.50;;;4.95;;
63693;SDS011;49839;51.798;10.954;2023-05-06T11:57:01;6.00;;;4.97;;
63693;SDS011;49839;51.798;10.954;2023-05-06T11:59:29;7.35;;;5.78;;
63693;SDS011;49839;51.798;10.954;2023-05-06T12:01:59;6.70;;;5.93;;
63693;SDS011;49839;51.798;10.954;2023-05-06T12:04:35;7.00;;;5.40;;
63693;SDS011;49839;51.798;10.954;2023-05-06T12:07:04;7.10;;;5.65;;
63693;SDS011;49839;51.798;10.954;2023-05-06T12:09:34;7.60;;;6.03;;
63693;SDS011;49839;51.798;10.954;2023-05-06T12:12:03;6.72;;;5.45;;
63693;SDS011;49839;51.798;10.954;2023-05-06T12:14:31;7.90;;;5.75;;
63693;SDS011;49839;51.798;10.954;2023-05-06T12:16:59;6.32;;;4.68;;
63693;SDS011;49839;51.798;10.954;2023-05-06T12:19:27;5.90;;;4.38;;
63693;SDS011;49839;51.798;10.954;2023-05-06T12:21:55;6.60;;;3.85;;
63693;SDS011;49839;51.798;10.954;2023-05-06T12:24:41;5.80;;;4.10;;
63693;SDS011;49839;51.798;10.954;2023-05-06T12:27:09;7.03;;;4.97;;
63693;SDS011;49839;51.798;10.954;2023-05-06T12:29:37;7.05;;;3.92;;
63693;SDS011;49839;51.798;10.954;2023-05-06T12:32:08;4.95;;;3.78;;
63693;SDS011;49839;51.798;10.954;2023-05-06T12:34:37;5.35;;;3.40;;
63693;SDS011;49839;51.798;10.954;2023-05-06T12:37:06;6.13;;;3.80;;
63693;SDS011;49839;51.798;10.954;2023-05-06T12:39:35;5.75;;;3.78;;
63693;SDS011;49839;51.798;10.954;2023-05-06T12:42:04;5.33;;;3.53;;
63693;SDS011;49839;51.798;10.954;2023-05-06T12:47:02;5.93;;;3.57;;
63693;SDS011;49839;51.798;10.954;2023-05-06T12:52:15;4.20;;;2.90;;
63693;SDS011;49839;51.798;10.954;2023-05-06T12:54:44;5.38;;;3.50;;
63693;SDS011;49839;51.798;10.954;2023-05-06T12:57:13;6.28;;;3.67;;
63693;SDS011;49839;51.798;10.954;2023-05-06T12:59:41;5.03;;;3.22;;
63693;SDS011;49839;51.798;10.954;2023-05-06T13:04:57;4.80;;;2.75;;
63693;SDS011;49839;51.798;10.954;2023-05-06T13:10:06;4.38;;;2.72;;
63693;SDS011;49839;51.798;10.954;2023-05-06T13:12:36;4.97;;;3.15;;
63693;SDS011;49839;51.798;10.954;2023-05-06T13:15:04;5.13;;;3.38;;
63693;SDS011;49839;51.798;10.954;2023-05-06T13:17:35;5.15;;;3.50;;
63693;SDS011;49839;51.798;10.954;2023-05-06T13:20:03;5.68;;;2.80;;
63693;SDS011;49839;51.798;10.954;2023-05-06T13:22:32;6.47;;;3.28;;
63693;SDS011;49839;51.798;10.954;2023-05-06T13:25:12;5.53;;;2.97;;
63693;SDS011;49839;51.798;10.954;2023-05-06T13:27:45;5.88;;;3.10;;
63693;SDS011;49839;51.798;10.954;2023-05-06T13:30:12;5.60;;;3.25;;
63693;SDS011;49839;51.798;10.954;2023-05-06T13:35:31;6.25;;;4.07;;
63693;SDS011;49839;51.798;10.954;2023-05-06T13:37:58;7.32;;;4.40;;
63693;SDS011;49839;51.798;10.954;2023-05-06T13:40:26;5.90;;;4.25;;
63693;SDS011;49839;51.798;10.954;2023-05-06T13:42:55;5.50;;;3.50;;
63693;SDS011;49839;51.798;10.954;2023-05-06T13:48:05;5.35;;;3.35;;
63693;SDS011;49839;51.798;10.954;2023-05-06T13:50:33;6.30;;;3.60;;
63693;SDS011;49839;51.798;10.954;2023-05-06T13:53:01;5.55;;;3.25;;
63693;SDS011;49839;51.798;10.954;2023-05-06T14:06:29;6.53;;;3.97;;
63693;SDS011;49839;51.798;10.954;2023-05-06T14:14:06;7.10;;;4.38;;
63693;SDS011;49839;51.798;10.954;2023-05-06T14:16:33;6.78;;;3.90;;
63693;SDS011;49839;51.798;10.954;2023-05-06T14:19:01;6.00;;;3.40;;
63693;SDS011;49839;51.798;10.954;2023-05-06T14:21:31;7.30;;;4.23;;
63693;SDS011;49839;51.798;10.954;2023-05-06T14:23:59;7.78;;;4.30;;
63693;SDS011;49839;51.798;10.954;2023-05-06T14:26:27;8.25;;;4.65;;
63693;SDS011;49839;51.798;10.954;2023-05-06T14:28:55;5.53;;;3.63;;
63693;SDS011;49839;51.798;10.954;2023-05-06T14:31:25;6.03;;;3.70;;
63693;SDS011;49839;51.798;10.954;2023-05-06T14:33:54;6.88;;;3.97;;
63693;SDS011;49839;51.798;10.954;2023-05-06T14:36:25;6.80;;;4.05;;
63693;SDS011;49839;51.798;10.954;2023-05-06T14:38:56;5.68;;;3.83;;
63693;SDS011;49839;51.798;10.954;2023-05-06T14:41:25;6.30;;;4.22;;
63693;SDS011;49839;51.798;10.954;2023-05-06T14:43:56;5.60;;;3.35;;
63693;SDS011;49839;51.798;10.954;2023-05-06T14:46:26;5.78;;;3.58;;
63693;SDS011;49839;51.798;10.954;2023-05-06T14:48:55;6.60;;;4.57;;
63693;SDS011;49839;51.798;10.954;2023-05-06T14:51:24;7.22;;;3.95;;
63693;SDS011;49839;51.798;10.954;2023-05-06T14:56:35;6.30;;;4.10;;
63693;SDS011;49839;51.798;10.954;2023-05-06T15:01:32;6.25;;;4.03;;
63693;SDS011;49839;51.798;10.954;2023-05-06T15:06:42;9.52;;;4.40;;
63693;SDS011;49839;51.798;10.954;2023-05-06T15:09:09;7.40;;;4.60;;
63693;SDS011;49839;51.798;10.954;2023-05-06T15:11:39;10.07;;;4.60;;
63693;SDS011;49839;51.798;10.954;2023-05-06T15:14:07;9.45;;;5.00;;
63693;SDS011;49839;51.798;10.954;2023-05-06T15:16:35;8.23;;;4.35;;
63693;SDS011;49839;51.798;10.954;2023-05-06T15:19:03;9.15;;;4.88;;
63693;SDS011;49839;51.798;10.954;2023-05-06T15:21:30;8.85;;;5.35;;
63693;SDS011;49839;51.798;10.954;2023-05-06T15:23:59;10.88;;;5.60;;
63693;SDS011;49839;51.798;10.954;2023-05-06T15:26:26;8.18;;;5.30;;
63693;SDS011;49839;51.798;10.954;2023-05-06T15:28:55;8.70;;;5.28;;
63693;SDS011;49839;51.798;10.954;2023-05-06T15:31:23;10.70;;;6.30;;
63693;SDS011;49839;51.798;10.954;2023-05-06T15:33:51;9.55;;;5.80;;
63693;SDS011;49839;51.798;10.954;2023-05-06T15:36:19;10.77;;;7.30;;
63693;SDS011;49839;51.798;10.954;2023-05-06T15:38:56;14.40;;;8.35;;
63693;SDS011;49839;51.798;10.954;2023-05-06T15:41:26;12.00;;;8.68;;
63693;SDS011;49839;51.798;10.954;2023-05-06T15:43:58;15.93;;;11.27;;
63693;SDS011;49839;51.798;10.954;2023-05-06T15:46:27;15.10;;;10.07;;
63693;SDS011;49839;51.798;10.954;2023-05-06T15:54:23;15.85;;;11.73;;
63693;SDS011;49839;51.798;10.954;2023-05-06T16:02:17;17.30;;;11.00;;
63693;SDS011;49839;51.798;10.954;2023-05-06T16:13:02;15.77;;;10.27;;
63693;SDS011;49839;51.798;10.954;2023-05-06T16:18:12;17.10;;;11.07;;
63693;SDS011;49839;51.798;10.954;2023-05-06T16:20:40;15.77;;;11.27;;
63693;SDS011;49839;51.798;10.954;2023-05-06T16:23:11;14.60;;;10.88;;
63693;SDS011;49839;51.798;10.954;2023-05-06T16:25:42;15.90;;;10.30;;
63693;SDS011;49839;51.798;10.954;2023-05-06T16:38:50;16.70;;;10.25;;
63693;SDS011;49839;51.798;10.954;2023-05-06T16:41:18;20.38;;;10.18;;
63693;SDS011;49839;51.798;10.954;2023-05-06T16:43:46;13.98;;;10.13;;
63693;SDS011;49839;51.798;10.954;2023-05-06T17:10:34;14.73;;;9.80;;
63693;SDS011;49839;51.798;10.954;2023-05-06T17:15:48;14.25;;;10.00;;
63693;SDS011;49839;51.798;10.954;2023-05-06T17:18:26;14.35;;;9.85;;
